sensor_id;sensor_type;location;lat;lon;timestamp;temperature;humidity
5711;DHT22;61291;52.524;13.422;2023-04-03T00:01:48;1.50;99.90
5711;DHT22;61291;52.524;13.422;2023-04-03T00:04:13;1.50;99.90
5711;DHT22;61291;52.524;13.422;2023-04-03T00:06:39;1.50;99.90
5711;DHT22;61291;52.524;13.422;2023-04-03T00:09:05;1.40;99.90
5711;DHT22;61291;52.524;13.422;2023-04-03T00:11:30;1.40;99.90
5711;DHT22;61291;52.524;13.422;2023-04-03T00:13:56;1.40;99.90
5711;DHT22;61291;52.524;13.422;2023-04-03T00:16:21;1.40;99.90
5711;DHT22;61291;52.524;13.422;2023-04-03T00:18:47;1.40;99.90
5711;DHT22;61291;52.524;13.422;2023-04-03T00:21:13;1.30;99.90
5711;DHT22;61291;52.524;13.422;2023-04-03T00:23:39;1.30;99.90
5711;DHT22;61291;52.524;13.422;2023-04-03T00:26:05;1.30;99.90
5711;DHT22;61291;52.524;13.422;2023-04-03T00:28:31;1.30;99.90
5711;DHT22;61291;52.524;13.422;2023-04-03T00:30:57;1.30;99.90
5711;DHT22;61291;52.524;13.422;2023-04-03T00:33:22;1.30;99.90
5711;DHT22;61291;52.524;13.422;2023-04-03T00:35:50;1.20;99.90
5711;DHT22;61291;52.524;13.422;2023-04-03T00:38:15;1.00;99.90
5711;DHT22;61291;52.524;13.422;2023-04-03T00:40:46;1.00;99.90
5711;DHT22;61291;52.524;13.422;2023-04-03T00:43:23;1.00;99.90
5711;DHT22;61291;52.524;13.422;2023-04-03T00:45:54;1.10;99.90
5711;DHT22;61291;52.524;13.422;2023-04-03T00:48:30;1.20;99.90
5711;DHT22;61291;52.524;13.422;2023-04-03T00:50:58;1.20;99.90
5711;DHT22;61291;52.524;13.422;2023-04-03T00:53:33;1.00;99.90
5711;DHT22;61291;52.524;13.422;2023-04-03T00:56:00;1.00;99.90
5711;DHT22;61291;52.524;13.422;2023-04-03T00:58:44;1.10;99.90
5711;DHT22;61291;52.524;13.422;2023-04-03T01:01:14;1.00;99.90
5711;DHT22;61291;52.524;13.422;2023-04-03T01:03:41;1.00;99.90
5711;DHT22;61291;52.524;13.422;2023-04-03T01:06:07;1.00;99.90
5711;DHT22;61291;52.524;13.422;2023-04-03T01:08:33;0.90;99.90
5711;DHT22;61291;52.524;13.422;2023-04-03T01:10:59;0.90;99.90
5711;DHT22;61291;52.524;13.422;2023-04-03T01:13:31;0.80;99.90
5711;DHT22;61291;52.524;13.422;2023-04-03T01:15:57;0.80;99.90
5711;DHT22;61291;52.524;13.422;2023-04-03T01:18:26;0.80;99.90
5711;DHT22;61291;52.524;13.422;2023-04-03T01:21:04;0.80;99.90
5711;DHT22;61291;52.524;13.422;2023-04-03T01:23:41;0.70;99.90
5711;DHT22;61291;52.524;13.422;2023-04-03T01:26:11;0.60;99.90
5711;DHT22;61291;52.524;13.422;2023-04-03T01:28:37;0.60;99.90
5711;DHT22;61291;52.524;13.422;2023-04-03T01:31:19;0.70;99.90
5711;DHT22;61291;52.524;13.422;2023-04-03T01:33:45;0.70;99.90
5711;DHT22;61291;52.524;13.422;2023-04-03T01:36:16;0.80;99.90
5711;DHT22;61291;52.524;13.422;2023-04-03T01:38:42;0.90;99.90
5711;DHT22;61291;52.524;13.422;2023-04-03T01:41:07;0.80;99.90
5711;DHT22;61291;52.524;13.422;2023-04-03T01:43:33;0.70;99.90
5711;DHT22;61291;52.524;13.422;2023-04-03T01:45:59;0.70;99.90
5711;DHT22;61291;52.524;13.422;2023-04-03T01:48:24;0.80;99.90
5711;DHT22;61291;52.524;13.422;2023-04-03T01:50:50;0.70;99.90
5711;DHT22;61291;52.524;13.422;2023-04-03T01:53:16;0.70;99.90
5711;DHT22;61291;52.524;13.422;2023-04-03T01:55:41;0.70;99.90
5711;DHT22;61291;52.524;13.422;2023-04-03T01:58:07;0.60;99.90
5711;DHT22;61291;52.524;13.422;2023-04-03T02:00:32;0.70;99.90
5711;DHT22;61291;52.524;13.422;2023-04-03T02:02:58;0.80;99.90
5711;DHT22;61291;52.524;13.422;2023-04-03T02:05:23;0.80;99.90
5711;DHT22;61291;52.524;13.422;2023-04-03T02:07:49;0.80;99.90
5711;DHT22;61291;52.524;13.422;2023-04-03T02:10:14;0.80;99.90
5711;DHT22;61291;52.524;13.422;2023-04-03T02:12:40;0.70;99.90
5711;DHT22;61291;52.524;13.422;2023-04-03T02:15:06;0.80;99.90
5711;DHT22;61291;52.524;13.422;2023-04-03T02:17:32;0.70;99.90
5711;DHT22;61291;52.524;13.422;2023-04-03T02:19:58;0.80;99.90
5711;DHT22;61291;52.524;13.422;2023-04-03T02:22:23;0.60;99.90
5711;DHT22;61291;52.524;13.422;2023-04-03T02:24:49;0.60;99.90
5711;DHT22;61291;52.524;13.422;2023-04-03T02:27:15;0.60;99.90
5711;DHT22;61291;52.524;13.422;2023-04-03T02:29:40;0.60;99.90
5711;DHT22;61291;52.524;13.422;2023-04-03T02:32:06;0.80;99.90
5711;DHT22;61291;52.524;13.422;2023-04-03T02:34:31;0.70;99.90
5711;DHT22;61291;52.524;13.422;2023-04-03T02:36:57;0.60;99.90
5711;DHT22;61291;52.524;13.422;2023-04-03T02:39:22;0.60;99.90
5711;DHT22;61291;52.524;13.422;2023-04-03T02:41:48;0.60;99.90
5711;DHT22;61291;52.524;13.422;2023-04-03T02:44:13;0.60;99.90
5711;DHT22;61291;52.524;13.422;2023-04-03T02:46:39;0.40;99.90
5711;DHT22;61291;52.524;13.422;2023-04-03T02:49:04;0.40;99.90
5711;DHT22;61291;52.524;13.422;2023-04-03T02:51:31;0.50;99.90
5711;DHT22;61291;52.524;13.422;2023-04-03T02:53:56;0.70;99.90
5711;DHT22;61291;52.524;13.422;2023-04-03T02:56:22;0.60;99.90
5711;DHT22;61291;52.524;13.422;2023-04-03T02:58:48;0.60;99.90
5711;DHT22;61291;52.524;13.422;2023-04-03T03:01:13;0.60;99.90
5711;DHT22;61291;52.524;13.422;2023-04-03T03:03:39;0.60;99.90
5711;DHT22;61291;52.524;13.422;2023-04-03T03:06:07;0.60;99.90
5711;DHT22;61291;52.524;13.422;2023-04-03T03:08:33;0.60;99.90
5711;DHT22;61291;52.524;13.422;2023-04-03T03:10:59;0.60;99.90
5711;DHT22;61291;52.524;13.422;2023-04-03T03:13:25;0.50;99.90
5711;DHT22;61291;52.524;13.422;2023-04-03T03:15:51;0.60;99.90
5711;DHT22;61291;52.524;13.422;2023-04-03T03:18:16;0.60;99.90
5711;DHT22;61291;52.524;13.422;2023-04-03T03:20:42;0.60;99.90
5711;DHT22;61291;52.524;13.422;2023-04-03T03:23:08;0.50;99.90
5711;DHT22;61291;52.524;13.422;2023-04-03T03:25:37;0.50;99.90
5711;DHT22;61291;52.524;13.422;2023-04-03T03:28:02;0.60;99.90
5711;DHT22;61291;52.524;13.422;2023-04-03T03:30:28;0.60;99.90
5711;DHT22;61291;52.524;13.422;2023-04-03T03:32:53;0.40;99.90
5711;DHT22;61291;52.524;13.422;2023-04-03T03:35:19;0.50;99.90
5711;DHT22;61291;52.524;13.422;2023-04-03T03:37:44;0.50;99.90
5711;DHT22;61291;52.524;13.422;2023-04-03T03:40:10;0.50;99.90
5711;DHT22;61291;52.524;13.422;2023-04-03T03:42:37;0.40;99.90
5711;DHT22;61291;52.524;13.422;2023-04-03T03:45:03;0.40;99.90
5711;DHT22;61291;52.524;13.422;2023-04-03T03:47:29;0.40;99.90
5711;DHT22;61291;52.524;13.422;2023-04-03T03:49:54;0.30;99.90
5711;DHT22;61291;52.524;13.422;2023-04-03T03:52:20;0.40;99.90
5711;DHT22;61291;52.524;13.422;2023-04-03T03:54:45;0.40;99.90
5711;DHT22;61291;52.524;13.422;2023-04-03T03:57:11;0.30;99.90
5711;DHT22;61291;52.524;13.422;2023-04-03T03:59:36;0.30;99.90
5711;DHT22;61291;52.524;13.422;2023-04-03T04:02:02;0.30;99.90
5711;DHT22;61291;52.524;13.422;2023-04-03T04:04:27;0.10;99.90
5711;DHT22;61291;52.524;13.422;2023-04-03T04:06:53;0.10;99.90
5711;DHT22;61291;52.524;13.422;2023-04-03T04:09:18;0.00;99.90
5711;DHT22;61291;52.524;13.422;2023-04-03T04:11:44;0.00;99.90
5711;DHT22;61291;52.524;13.422;2023-04-03T04:14:10;0.00;99.90
5711;DHT22;61291;52.524;13.422;2023-04-03T04:16:37;0.00;99.90
5711;DHT22;61291;52.524;13.422;2023-04-03T04:19:03;0.00;99.90
5711;DHT22;61291;52.524;13.422;2023-04-03T04:21:28;0.00;99.90
5711;DHT22;61291;52.524;13.422;2023-04-03T04:23:54;0.00;99.90
5711;DHT22;61291;52.524;13.422;2023-04-03T04:26:20;0.00;99.90
5711;DHT22;61291;52.524;13.422;2023-04-03T04:28:45;-0.10;99.90
5711;DHT22;61291;52.524;13.422;2023-04-03T04:31:11;-0.10;99.90
5711;DHT22;61291;52.524;13.422;2023-04-03T04:33:36;-0.10;99.90
5711;DHT22;61291;52.524;13.422;2023-04-03T04:36:02;0.00;99.90
5711;DHT22;61291;52.524;13.422;2023-04-03T04:38:27;0.00;99.90
5711;DHT22;61291;52.524;13.422;2023-04-03T04:40:53;0.10;99.90
5711;DHT22;61291;52.524;13.422;2023-04-03T04:43:18;0.10;99.90
5711;DHT22;61291;52.524;13.422;2023-04-03T04:45:44;0.10;99.90
5711;DHT22;61291;52.524;13.422;2023-04-03T04:48:10;0.20;99.90
5711;DHT22;61291;52.524;13.422;2023-04-03T04:50:35;0.30;99.90
5711;DHT22;61291;52.524;13.422;2023-04-03T04:53:01;0.30;99.90
5711;DHT22;61291;52.524;13.422;2023-04-03T04:55:26;0.20;99.90
5711;DHT22;61291;52.524;13.422;2023-04-03T04:57:52;0.30;99.90
5711;DHT22;61291;52.524;13.422;2023-04-03T05:00:18;0.30;99.90
5711;DHT22;61291;52.524;13.422;2023-04-03T05:02:43;0.50;99.90
5711;DHT22;61291;52.524;13.422;2023-04-03T05:05:09;0.50;99.90
5711;DHT22;61291;52.524;13.422;2023-04-03T05:07:35;0.60;99.90
5711;DHT22;61291;52.524;13.422;2023-04-03T05:10:01;0.50;99.90
5711;DHT22;61291;52.524;13.422;2023-04-03T05:12:28;0.60;99.90
5711;DHT22;61291;52.524;13.422;2023-04-03T05:14:54;0.70;99.90
5711;DHT22;61291;52.524;13.422;2023-04-03T05:17:19;0.70;99.90
5711;DHT22;61291;52.524;13.422;2023-04-03T05:19:45;0.80;99.90
5711;DHT22;61291;52.524;13.422;2023-04-03T05:22:10;0.80;99.90
5711;DHT22;61291;52.524;13.422;2023-04-03T05:24:36;0.90;99.90
5711;DHT22;61291;52.524;13.422;2023-04-03T05:27:02;1.20;99.90
5711;DHT22;61291;52.524;13.422;2023-04-03T05:29:27;1.60;99.90
5711;DHT22;61291;52.524;13.422;2023-04-03T05:31:53;1.90;99.90
5711;DHT22;61291;52.524;13.422;2023-04-03T05:34:19;2.20;99.90
5711;DHT22;61291;52.524;13.422;2023-04-03T05:36:44;2.30;99.90
5711;DHT22;61291;52.524;13.422;2023-04-03T05:39:10;2.60;99.90
5711;DHT22;61291;52.524;13.422;2023-04-03T05:41:35;3.20;99.90
5711;DHT22;61291;52.524;13.422;2023-04-03T05:44:01;3.10;99.90
5711;DHT22;61291;52.524;13.422;2023-04-03T05:46:26;3.50;99.90
5711;DHT22;61291;52.524;13.422;2023-04-03T05:48:52;4.00;99.90
5711;DHT22;61291;52.524;13.422;2023-04-03T05:51:19;4.50;99.90
5711;DHT22;61291;52.524;13.422;2023-04-03T05:53:47;3.90;99.90
5711;DHT22;61291;52.524;13.422;2023-04-03T05:56:13;4.10;99.90
5711;DHT22;61291;52.524;13.422;2023-04-03T05:58:39;5.30;99.90
5711;DHT22;61291;52.524;13.422;2023-04-03T06:01:05;5.30;99.90
5711;DHT22;61291;52.524;13.422;2023-04-03T06:03:31;5.20;99.90
5711;DHT22;61291;52.524;13.422;2023-04-03T06:05:56;5.30;99.90
5711;DHT22;61291;52.524;13.422;2023-04-03T06:08:22;6.20;99.90
5711;DHT22;61291;52.524;13.422;2023-04-03T06:10:49;6.70;99.90
5711;DHT22;61291;52.524;13.422;2023-04-03T06:13:15;8.00;99.90
5711;DHT22;61291;52.524;13.422;2023-04-03T06:15:41;7.80;99.90
5711;DHT22;61291;52.524;13.422;2023-04-03T06:18:06;8.30;99.90
5711;DHT22;61291;52.524;13.422;2023-04-03T06:20:42;8.10;99.90
5711;DHT22;61291;52.524;13.422;2023-04-03T06:23:08;8.60;99.90
5711;DHT22;61291;52.524;13.422;2023-04-03T06:25:34;8.30;99.10
5711;DHT22;61291;52.524;13.422;2023-04-03T06:27:59;8.50;99.60
5711;DHT22;61291;52.524;13.422;2023-04-03T06:30:25;8.90;99.40
5711;DHT22;61291;52.524;13.422;2023-04-03T06:32:51;9.60;99.00
5711;DHT22;61291;52.524;13.422;2023-04-03T06:35:17;9.60;97.80
5711;DHT22;61291;52.524;13.422;2023-04-03T06:37:42;9.30;98.00
5711;DHT22;61291;52.524;13.422;2023-04-03T06:40:15;9.60;98.00
5711;DHT22;61291;52.524;13.422;2023-04-03T06:42:43;10.10;95.60
5711;DHT22;61291;52.524;13.422;2023-04-03T06:45:08;11.20;96.60
5711;DHT22;61291;52.524;13.422;2023-04-03T06:47:36;11.00;95.30
5711;DHT22;61291;52.524;13.422;2023-04-03T06:50:02;10.40;94.90
5711;DHT22;61291;52.524;13.422;2023-04-03T06:52:27;10.40;95.00
5711;DHT22;61291;52.524;13.422;2023-04-03T06:54:53;10.40;94.70
5711;DHT22;61291;52.524;13.422;2023-04-03T06:57:22;10.10;94.70
5711;DHT22;61291;52.524;13.422;2023-04-03T06:59:47;8.90;95.30
5711;DHT22;61291;52.524;13.422;2023-04-03T07:02:13;7.70;94.40
5711;DHT22;61291;52.524;13.422;2023-04-03T07:04:38;8.30;95.20
5711;DHT22;61291;52.524;13.422;2023-04-03T07:07:04;7.40;95.10
5711;DHT22;61291;52.524;13.422;2023-04-03T07:09:29;7.80;95.00
5711;DHT22;61291;52.524;13.422;2023-04-03T07:11:55;7.40;95.20
5711;DHT22;61291;52.524;13.422;2023-04-03T07:14:21;6.80;93.70
5711;DHT22;61291;52.524;13.422;2023-04-03T07:16:46;6.60;93.90
5711;DHT22;61291;52.524;13.422;2023-04-03T07:19:12;7.30;94.40
5711;DHT22;61291;52.524;13.422;2023-04-03T07:21:37;7.30;93.50
5711;DHT22;61291;52.524;13.422;2023-04-03T07:24:03;7.70;93.10
5711;DHT22;61291;52.524;13.422;2023-04-03T07:26:28;7.60;93.20
5711;DHT22;61291;52.524;13.422;2023-04-03T07:28:54;7.50;92.80
5711;DHT22;61291;52.524;13.422;2023-04-03T07:31:19;6.90;93.30
5711;DHT22;61291;52.524;13.422;2023-04-03T07:33:45;6.70;93.30
5711;DHT22;61291;52.524;13.422;2023-04-03T07:36:15;6.50;92.60
5711;DHT22;61291;52.524;13.422;2023-04-03T07:38:41;7.10;93.00
5711;DHT22;61291;52.524;13.422;2023-04-03T07:41:06;6.00;93.30
5711;DHT22;61291;52.524;13.422;2023-04-03T07:43:36;5.70;93.60
5711;DHT22;61291;52.524;13.422;2023-04-03T07:46:04;5.80;94.00
5711;DHT22;61291;52.524;13.422;2023-04-03T07:48:30;6.00;93.90
5711;DHT22;61291;52.524;13.422;2023-04-03T07:50:59;5.70;94.40
5711;DHT22;61291;52.524;13.422;2023-04-03T07:53:25;6.00;94.30
5711;DHT22;61291;52.524;13.422;2023-04-03T07:55:50;6.40;93.40
5711;DHT22;61291;52.524;13.422;2023-04-03T07:58:20;6.50;93.30
5711;DHT22;61291;52.524;13.422;2023-04-03T08:00:46;6.70;93.00
5711;DHT22;61291;52.524;13.422;2023-04-03T08:03:12;7.20;92.50
5711;DHT22;61291;52.524;13.422;2023-04-03T08:05:40;7.90;92.70
5711;DHT22;61291;52.524;13.422;2023-04-03T08:08:07;7.40;91.90
5711;DHT22;61291;52.524;13.422;2023-04-03T08:10:32;7.20;92.40
5711;DHT22;61291;52.524;13.422;2023-04-03T08:12:58;6.50;92.00
5711;DHT22;61291;52.524;13.422;2023-04-03T08:15:24;6.10;92.50
5711;DHT22;61291;52.524;13.422;2023-04-03T08:17:50;6.00;92.60
5711;DHT22;61291;52.524;13.422;2023-04-03T08:20:16;6.10;92.70
5711;DHT22;61291;52.524;13.422;2023-04-03T08:22:42;6.00;92.90
5711;DHT22;61291;52.524;13.422;2023-04-03T08:25:08;6.30;92.80
5711;DHT22;61291;52.524;13.422;2023-04-03T08:27:34;6.40;92.20
5711;DHT22;61291;52.524;13.422;2023-04-03T08:29:59;6.60;92.20
5711;DHT22;61291;52.524;13.422;2023-04-03T08:32:25;6.70;92.10
5711;DHT22;61291;52.524;13.422;2023-04-03T08:34:51;7.60;92.40
5711;DHT22;61291;52.524;13.422;2023-04-03T08:37:17;7.50;91.70
5711;DHT22;61291;52.524;13.422;2023-04-03T08:39:43;7.50;91.30
5711;DHT22;61291;52.524;13.422;2023-04-03T08:45:16;7.00;91.20
5711;DHT22;61291;52.524;13.422;2023-04-03T08:49:03;6.60;90.70
5711;DHT22;61291;52.524;13.422;2023-04-03T08:51:00;6.80;91.10
5711;DHT22;61291;52.524;13.422;2023-04-03T08:53:30;6.50;91.20
5711;DHT22;61291;52.524;13.422;2023-04-03T08:55:58;7.20;91.40
5711;DHT22;61291;52.524;13.422;2023-04-03T08:58:52;7.30;90.80
5711;DHT22;61291;52.524;13.422;2023-04-03T09:01:40;6.70;91.00
5711;DHT22;61291;52.524;13.422;2023-04-03T09:04:13;7.50;90.80
5711;DHT22;61291;52.524;13.422;2023-04-03T09:06:39;7.30;90.10
5711;DHT22;61291;52.524;13.422;2023-04-03T09:09:24;7.20;90.30
5711;DHT22;61291;52.524;13.422;2023-04-03T09:15:21;8.20;89.90
5711;DHT22;61291;52.524;13.422;2023-04-03T09:17:57;8.10;87.30
5711;DHT22;61291;52.524;13.422;2023-04-03T09:23:40;8.40;85.00
5711;DHT22;61291;52.524;13.422;2023-04-03T09:26:13;8.20;85.50
5711;DHT22;61291;52.524;13.422;2023-04-03T09:28:40;8.00;86.10
5711;DHT22;61291;52.524;13.422;2023-04-03T09:31:22;8.60;86.50
5711;DHT22;61291;52.524;13.422;2023-04-03T09:33:50;9.40;86.50
5711;DHT22;61291;52.524;13.422;2023-04-03T09:36:37;10.30;82.10
5711;DHT22;61291;52.524;13.422;2023-04-03T09:39:05;9.20;80.60
5711;DHT22;61291;52.524;13.422;2023-04-03T09:41:33;10.00;80.80
5711;DHT22;61291;52.524;13.422;2023-04-03T09:43:58;9.70;82.20
5711;DHT22;61291;52.524;13.422;2023-04-03T09:46:32;8.70;82.40
5711;DHT22;61291;52.524;13.422;2023-04-03T09:49:03;7.80;82.10
5711;DHT22;61291;52.524;13.422;2023-04-03T09:51:30;7.90;83.50
5711;DHT22;61291;52.524;13.422;2023-04-03T09:53:56;8.00;84.80
5711;DHT22;61291;52.524;13.422;2023-04-03T09:56:25;7.50;85.10
5711;DHT22;61291;52.524;13.422;2023-04-03T10:01:39;8.40;85.20
5711;DHT22;61291;52.524;13.422;2023-04-03T10:04:09;7.90;84.00
5711;DHT22;61291;52.524;13.422;2023-04-03T10:06:53;8.60;85.00
5711;DHT22;61291;52.524;13.422;2023-04-03T10:09:24;8.30;83.50
5711;DHT22;61291;52.524;13.422;2023-04-03T10:12:11;7.90;83.00
5711;DHT22;61291;52.524;13.422;2023-04-03T10:17:36;9.50;83.60
5711;DHT22;61291;52.524;13.422;2023-04-03T10:20:07;9.10;82.90
5711;DHT22;61291;52.524;13.422;2023-04-03T10:28:03;9.60;82.20
5711;DHT22;61291;52.524;13.422;2023-04-03T10:39:06;9.80;77.90
5711;DHT22;61291;52.524;13.422;2023-04-03T10:44:16;10.00;75.30
5711;DHT22;61291;52.524;13.422;2023-04-03T10:56:35;11.40;76.90
5711;DHT22;61291;52.524;13.422;2023-04-03T10:58:47;10.20;74.20
5711;DHT22;61291;52.524;13.422;2023-04-03T11:01:21;11.00;76.10
5711;DHT22;61291;52.524;13.422;2023-04-03T11:03:58;11.10;76.20
5711;DHT22;61291;52.524;13.422;2023-04-03T11:06:26;11.40;76.00
5711;DHT22;61291;52.524;13.422;2023-04-03T11:08:57;9.50;77.20
5711;DHT22;61291;52.524;13.422;2023-04-03T11:11:31;9.80;78.60
5711;DHT22;61291;52.524;13.422;2023-04-03T11:14:16;10.40;77.10
5711;DHT22;61291;52.524;13.422;2023-04-03T11:16:48;10.80;77.50
5711;DHT22;61291;52.524;13.422;2023-04-03T11:19:20;10.50;76.30
5711;DHT22;61291;52.524;13.422;2023-04-03T11:21:57;9.60;77.00
5711;DHT22;61291;52.524;13.422;2023-04-03T11:24:27;9.40;77.70
5711;DHT22;61291;52.524;13.422;2023-04-03T11:26:56;9.30;79.10
5711;DHT22;61291;52.524;13.422;2023-04-03T11:29:35;9.30;79.80
5711;DHT22;61291;52.524;13.422;2023-04-03T11:32:26;9.80;79.70
5711;DHT22;61291;52.524;13.422;2023-04-03T11:34:56;10.10;78.50
5711;DHT22;61291;52.524;13.422;2023-04-03T11:37:43;11.10;77.50
5711;DHT22;61291;52.524;13.422;2023-04-03T11:42:46;11.10;77.80
5711;DHT22;61291;52.524;13.422;2023-04-03T11:45:22;10.80;77.90
5711;DHT22;61291;52.524;13.422;2023-04-03T11:48:00;10.80;78.30
5711;DHT22;61291;52.524;13.422;2023-04-03T11:55:55;10.20;77.50
5711;DHT22;61291;52.524;13.422;2023-04-03T11:58:29;9.40;78.40
5711;DHT22;61291;52.524;13.422;2023-04-03T12:01:07;8.90;78.40
5711;DHT22;61291;52.524;13.422;2023-04-03T12:27:03;8.90;80.30
5711;DHT22;61291;52.524;13.422;2023-04-03T12:34:54;8.10;81.70
5711;DHT22;61291;52.524;13.422;2023-04-03T12:46:09;9.00;78.80
5711;DHT22;61291;52.524;13.422;2023-04-03T12:48:47;9.00;76.80
5711;DHT22;61291;52.524;13.422;2023-04-03T12:51:18;8.90;78.30
5711;DHT22;61291;52.524;13.422;2023-04-03T12:53:45;9.50;78.50
5711;DHT22;61291;52.524;13.422;2023-04-03T12:56:27;9.60;78.30
5711;DHT22;61291;52.524;13.422;2023-04-03T13:01:44;9.90;78.60
5711;DHT22;61291;52.524;13.422;2023-04-03T13:04:17;9.40;77.80
5711;DHT22;61291;52.524;13.422;2023-04-03T13:06:44;9.70;78.40
5711;DHT22;61291;52.524;13.422;2023-04-03T13:09:22;9.10;79.10
5711;DHT22;61291;52.524;13.422;2023-04-03T13:11:50;9.20;78.70
5711;DHT22;61291;52.524;13.422;2023-04-03T13:14:22;8.80;79.90
5711;DHT22;61291;52.524;13.422;2023-04-03T13:16:59;8.60;80.50
5711;DHT22;61291;52.524;13.422;2023-04-03T13:19:27;9.20;80.10
5711;DHT22;61291;52.524;13.422;2023-04-03T13:22:06;9.30;79.90
5711;DHT22;61291;52.524;13.422;2023-04-03T13:24:36;9.20;80.30
5711;DHT22;61291;52.524;13.422;2023-04-03T13:27:02;9.30;80.60
5711;DHT22;61291;52.524;13.422;2023-04-03T13:29:34;8.50;79.90
5711;DHT22;61291;52.524;13.422;2023-04-03T13:32:02;8.90;82.20
5711;DHT22;61291;52.524;13.422;2023-04-03T13:34:35;8.70;80.50
5711;DHT22;61291;52.524;13.422;2023-04-03T13:37:02;9.00;80.50
5711;DHT22;61291;52.524;13.422;2023-04-03T13:39:35;9.00;80.60
5711;DHT22;61291;52.524;13.422;2023-04-03T13:42:24;9.60;80.50
5711;DHT22;61291;52.524;13.422;2023-04-03T13:45:09;9.70;80.10
5711;DHT22;61291;52.524;13.422;2023-04-03T13:47:43;8.90;79.90
5711;DHT22;61291;52.524;13.422;2023-04-03T13:53:11;8.00;80.70
5711;DHT22;61291;52.524;13.422;2023-04-03T13:58:31;8.10;82.40
5711;DHT22;61291;52.524;13.422;2023-04-03T14:03:47;8.60;82.10
5711;DHT22;61291;52.524;13.422;2023-04-03T14:06:15;9.20;82.40
5711;DHT22;61291;52.524;13.422;2023-04-03T14:08:42;9.30;82.70
5711;DHT22;61291;52.524;13.422;2023-04-03T14:11:14;9.10;81.40
5711;DHT22;61291;52.524;13.422;2023-04-03T14:13:41;9.30;82.10
5711;DHT22;61291;52.524;13.422;2023-04-03T14:16:06;9.70;82.10
5711;DHT22;61291;52.524;13.422;2023-04-03T14:18:32;8.80;80.90
5711;DHT22;61291;52.524;13.422;2023-04-03T14:20:57;8.50;81.20
5711;DHT22;61291;52.524;13.422;2023-04-03T14:23:23;8.30;82.20
5711;DHT22;61291;52.524;13.422;2023-04-03T14:25:49;8.80;81.80
5711;DHT22;61291;52.524;13.422;2023-04-03T14:28:18;8.70;82.10
5711;DHT22;61291;52.524;13.422;2023-04-03T14:30:45;8.60;82.10
5711;DHT22;61291;52.524;13.422;2023-04-03T14:33:15;8.90;82.60
5711;DHT22;61291;52.524;13.422;2023-04-03T14:35:41;8.80;81.70
5711;DHT22;61291;52.524;13.422;2023-04-03T14:38:22;9.20;82.90
5711;DHT22;61291;52.524;13.422;2023-04-03T14:40:49;8.80;82.10
5711;DHT22;61291;52.524;13.422;2023-04-03T14:43:15;8.90;83.30
5711;DHT22;61291;52.524;13.422;2023-04-03T14:45:41;8.70;83.00
5711;DHT22;61291;52.524;13.422;2023-04-03T14:48:18;8.40;83.30
5711;DHT22;61291;52.524;13.422;2023-04-03T14:50:44;8.30;82.70
5711;DHT22;61291;52.524;13.422;2023-04-03T14:53:12;7.90;84.20
5711;DHT22;61291;52.524;13.422;2023-04-03T14:55:41;7.20;85.50
5711;DHT22;61291;52.524;13.422;2023-04-03T14:58:13;7.30;85.70
5711;DHT22;61291;52.524;13.422;2023-04-03T15:00:38;7.20;86.30
5711;DHT22;61291;52.524;13.422;2023-04-03T15:03:04;7.50;85.40
5711;DHT22;61291;52.524;13.422;2023-04-03T15:05:29;6.90;87.80
5711;DHT22;61291;52.524;13.422;2023-04-03T15:07:55;6.70;88.20
5711;DHT22;61291;52.524;13.422;2023-04-03T15:10:28;6.50;89.20
5711;DHT22;61291;52.524;13.422;2023-04-03T15:12:53;6.50;90.10
5711;DHT22;61291;52.524;13.422;2023-04-03T15:15:21;6.60;89.50
5711;DHT22;61291;52.524;13.422;2023-04-03T15:17:51;6.40;90.00
5711;DHT22;61291;52.524;13.422;2023-04-03T15:20:21;6.30;90.50
5711;DHT22;61291;52.524;13.422;2023-04-03T15:22:46;6.00;90.80
5711;DHT22;61291;52.524;13.422;2023-04-03T15:25:12;6.00;91.00
5711;DHT22;61291;52.524;13.422;2023-04-03T15:27:38;6.00;91.10
5711;DHT22;61291;52.524;13.422;2023-04-03T15:30:06;6.10;91.30
5711;DHT22;61291;52.524;13.422;2023-04-03T15:32:33;6.00;91.50
5711;DHT22;61291;52.524;13.422;2023-04-03T15:34:59;6.10;91.50
5711;DHT22;61291;52.524;13.422;2023-04-03T15:37:25;6.20;91.60
5711;DHT22;61291;52.524;13.422;2023-04-03T15:39:51;6.40;91.50
5711;DHT22;61291;52.524;13.422;2023-04-03T15:42:16;6.40;91.60
5711;DHT22;61291;52.524;13.422;2023-04-03T15:44:42;6.30;91.50
5711;DHT22;61291;52.524;13.422;2023-04-03T15:47:07;6.20;91.40
5711;DHT22;61291;52.524;13.422;2023-04-03T15:49:33;6.30;91.40
5711;DHT22;61291;52.524;13.422;2023-04-03T15:51:59;6.50;91.20
5711;DHT22;61291;52.524;13.422;2023-04-03T15:54:25;6.70;91.00
5711;DHT22;61291;52.524;13.422;2023-04-03T15:56:52;6.30;90.90
5711;DHT22;61291;52.524;13.422;2023-04-03T15:59:17;6.00;91.10
5711;DHT22;61291;52.524;13.422;2023-04-03T16:01:43;5.80;91.20
5711;DHT22;61291;52.524;13.422;2023-04-03T16:04:10;5.50;91.70
5711;DHT22;61291;52.524;13.422;2023-04-03T16:06:36;5.50;91.60
5711;DHT22;61291;52.524;13.422;2023-04-03T16:09:03;5.50;91.70
5711;DHT22;61291;52.524;13.422;2023-04-03T16:11:29;5.50;91.70
5711;DHT22;61291;52.524;13.422;2023-04-03T16:13:55;5.60;91.80
5711;DHT22;61291;52.524;13.422;2023-04-03T16:16:20;5.90;91.80
5711;DHT22;61291;52.524;13.422;2023-04-03T16:18:46;6.10;91.70
5711;DHT22;61291;52.524;13.422;2023-04-03T16:21:13;6.20;91.40
5711;DHT22;61291;52.524;13.422;2023-04-03T16:23:40;6.70;91.60
5711;DHT22;61291;52.524;13.422;2023-04-03T16:26:05;6.80;91.50
5711;DHT22;61291;52.524;13.422;2023-04-03T16:28:31;6.70;91.30
5711;DHT22;61291;52.524;13.422;2023-04-03T16:30:57;6.40;91.30
5711;DHT22;61291;52.524;13.422;2023-04-03T16:33:23;6.40;91.20
5711;DHT22;61291;52.524;13.422;2023-04-03T16:35:50;6.20;91.50
5711;DHT22;61291;52.524;13.422;2023-04-03T16:38:16;6.00;91.60
5711;DHT22;61291;52.524;13.422;2023-04-03T16:40:41;6.00;91.80
5711;DHT22;61291;52.524;13.422;2023-04-03T16:43:07;5.90;91.90
5711;DHT22;61291;52.524;13.422;2023-04-03T16:45:33;5.70;92.00
5711;DHT22;61291;52.524;13.422;2023-04-03T16:47:58;5.70;92.20
5711;DHT22;61291;52.524;13.422;2023-04-03T16:50:24;5.60;92.40
5711;DHT22;61291;52.524;13.422;2023-04-03T16:52:49;5.60;92.50
5711;DHT22;61291;52.524;13.422;2023-04-03T16:55:15;5.60;92.50
5711;DHT22;61291;52.524;13.422;2023-04-03T16:57:41;5.60;92.70
5711;DHT22;61291;52.524;13.422;2023-04-03T17:00:07;5.60;92.60
5711;DHT22;61291;52.524;13.422;2023-04-03T17:02:33;5.50;92.70
5711;DHT22;61291;52.524;13.422;2023-04-03T17:04:59;5.50;92.60
5711;DHT22;61291;52.524;13.422;2023-04-03T17:07:25;5.30;93.00
5711;DHT22;61291;52.524;13.422;2023-04-03T17:09:51;5.20;93.10
5711;DHT22;61291;52.524;13.422;2023-04-03T17:12:19;5.30;93.20
5711;DHT22;61291;52.524;13.422;2023-04-03T17:14:45;5.30;93.30
5711;DHT22;61291;52.524;13.422;2023-04-03T17:17:12;5.10;93.30
5711;DHT22;61291;52.524;13.422;2023-04-03T17:19:39;5.20;93.30
5711;DHT22;61291;52.524;13.422;2023-04-03T17:22:05;5.20;93.50
5711;DHT22;61291;52.524;13.422;2023-04-03T17:24:32;5.20;93.50
5711;DHT22;61291;52.524;13.422;2023-04-03T17:26:58;5.20;93.60
5711;DHT22;61291;52.524;13.422;2023-04-03T17:29:23;5.10;93.70